createdAt,value
2018-07-08T00:00:14.196Z,16.94
2018-07-08T00:02:43.175Z,16.87
2018-07-08T00:05:12.514Z,16.91
2018-07-08T00:07:41.751Z,16.78
2018-07-08T00:10:10.986Z,16.84
2018-07-08T00:12:40.119Z,16.76
2018-07-08T00:15:09.366Z,16.74
2018-07-08T00:17:38.576Z,16.72
2018-07-08T00:20:08.101Z,16.71
2018-07-08T00:22:37.280Z,16.64
2018-07-08T00:25:06.982Z,16.62
2018-07-08T00:27:36.223Z,16.68
2018-07-08T00:30:05.383Z,16.57
2018-07-08T00:32:34.445Z,16.46
2018-07-08T00:35:03.649Z,16.49
2018-07-08T00:37:32.854Z,16.29
2018-07-08T00:40:02.042Z,16.27
2018-07-08T00:42:31.394Z,16.23
2018-07-08T00:45:00.431Z,16.19
2018-07-08T00:47:29.638Z,16.19
2018-07-08T00:49:58.822Z,16.18
2018-07-08T00:52:28.142Z,16.19
2018-07-08T00:54:57.349Z,16.11
2018-07-08T00:57:26.331Z,16.14
2018-07-08T00:59:55.434Z,16.12
2018-07-08T01:02:24.630Z,16.14
2018-07-08T01:04:54.409Z,15.99
2018-07-08T01:07:23.659Z,15.98
2018-07-08T01:09:52.814Z,15.94
2018-07-08T01:12:21.958Z,15.90
2018-07-08T01:14:51.126Z,15.91
2018-07-08T01:17:20.320Z,15.93
2018-07-08T01:19:49.531Z,15.90
2018-07-08T01:22:18.611Z,15.98
2018-07-08T01:24:47.699Z,15.93
2018-07-08T01:27:16.846Z,16.09
2018-07-08T01:29:45.994Z,15.93
2018-07-08T01:32:15.115Z,15.92
2018-07-08T01:34:44.270Z,16.00
2018-07-08T01:37:13.496Z,15.83
2018-07-08T01:39:42.546Z,15.89
2018-07-08T01:42:11.616Z,15.81
2018-07-08T01:44:40.747Z,15.87
2018-07-08T01:47:09.988Z,15.76
2018-07-08T01:49:39.036Z,15.80
2018-07-08T01:52:08.056Z,15.78
2018-07-08T01:54:37.543Z,15.65
2018-07-08T01:57:06.879Z,15.55
2018-07-08T01:59:36.323Z,15.56
2018-07-08T02:02:05.759Z,15.50
2018-07-08T02:04:34.952Z,15.49
2018-07-08T02:07:03.937Z,15.31
2018-07-08T02:09:33.050Z,15.28
2018-07-08T02:12:02.266Z,15.31
2018-07-08T02:14:31.403Z,15.32
2018-07-08T02:17:00.662Z,15.32
2018-07-08T02:19:29.994Z,15.31
2018-07-08T02:21:59.119Z,15.28
2018-07-08T02:24:28.251Z,15.28
2018-07-08T02:26:57.487Z,15.22
2018-07-08T02:29:26.637Z,15.21
2018-07-08T02:31:55.866Z,15.18
2018-07-08T02:34:25.727Z,15.34
2018-07-08T02:36:54.979Z,15.21
2018-07-08T02:39:24.390Z,15.35
2018-07-08T02:41:53.546Z,15.30
2018-07-08T02:44:22.742Z,15.19
2018-07-08T02:46:51.853Z,15.18
2018-07-08T02:49:21.266Z,15.26
2018-07-08T02:51:50.527Z,15.33
2018-07-08T02:54:19.877Z,15.41
2018-07-08T02:56:49.086Z,15.44
2018-07-08T02:59:18.378Z,15.40
2018-07-08T03:01:47.642Z,15.40
2018-07-08T03:04:16.838Z,15.41
2018-07-08T03:06:46.161Z,15.40
2018-07-08T03:09:15.339Z,15.46
2018-07-08T03:11:44.454Z,15.42
2018-07-08T03:14:13.618Z,15.48
2018-07-08T03:16:42.743Z,15.56
2018-07-08T03:19:12.131Z,15.46
2018-07-08T03:21:41.361Z,15.50
2018-07-08T03:24:10.430Z,15.52
2018-07-08T03:26:39.538Z,15.50
2018-07-08T03:29:09.104Z,15.55
2018-07-08T03:31:38.263Z,15.70
2018-07-08T03:34:07.330Z,15.55
2018-07-08T03:36:36.633Z,15.54
2018-07-08T03:39:06.982Z,15.46
2018-07-08T03:41:36.127Z,15.49
2018-07-08T03:44:05.526Z,15.46
2018-07-08T03:46:34.920Z,15.39
2018-07-08T03:49:04.127Z,15.48
2018-07-08T03:51:33.551Z,15.50
2018-07-08T03:54:02.730Z,15.57
2018-07-08T03:56:31.850Z,15.65
2018-07-08T03:59:01.019Z,15.55
2018-07-08T04:04:25.357Z,15.62
2018-07-08T04:06:54.187Z,15.63
2018-07-08T04:09:23.274Z,15.73
2018-07-08T04:11:52.054Z,15.65
2018-07-08T04:14:20.851Z,15.74
2018-07-08T04:16:49.779Z,15.87
2018-07-08T04:19:18.518Z,15.78
2018-07-08T04:21:47.149Z,15.86
2018-07-08T04:24:16.042Z,15.91
2018-07-08T04:26:45.134Z,15.87
2018-07-08T04:29:13.703Z,15.83
2018-07-08T04:31:42.407Z,15.85
2018-07-08T04:34:10.996Z,15.81
2018-07-08T04:36:40.119Z,15.85
2018-07-08T04:39:09.778Z,15.73
2018-07-08T04:41:38.670Z,15.91
2018-07-08T04:44:07.558Z,15.91
2018-07-08T04:46:36.823Z,15.98
2018-07-08T04:49:05.625Z,16.05
2018-07-08T04:51:34.342Z,15.84
2018-07-08T04:54:02.967Z,16.01
2018-07-08T04:56:31.817Z,16.23
2018-07-08T04:59:00.699Z,16.30
2018-07-08T05:01:29.530Z,16.07
2018-07-08T05:03:58.143Z,16.38
2018-07-08T05:06:27.042Z,16.62
2018-07-08T05:08:55.694Z,16.64
2018-07-08T05:11:24.423Z,16.44
2018-07-08T05:13:53.427Z,16.51
2018-07-08T05:16:22.109Z,16.66
2018-07-08T05:18:51.002Z,16.56
2018-07-08T05:21:19.919Z,16.53
2018-07-08T05:23:49.004Z,16.40
2018-07-08T05:26:18.085Z,16.52
2018-07-08T05:28:47.419Z,16.66
2018-07-08T05:31:16.354Z,16.87
2018-07-08T05:33:45.155Z,16.63
2018-07-08T05:36:14.267Z,16.88
2018-07-08T05:38:43.142Z,16.95
2018-07-08T05:41:12.064Z,17.02
2018-07-08T05:43:41.392Z,16.85
2018-07-08T05:46:10.043Z,16.86
2018-07-08T05:48:39.739Z,16.74
2018-07-08T05:51:08.486Z,16.80
2018-07-08T05:53:37.174Z,16.97
2018-07-08T05:56:06.012Z,16.87
2018-07-08T05:58:34.915Z,16.75
2018-07-08T06:01:03.854Z,16.91
2018-07-08T06:03:32.484Z,17.12
2018-07-08T06:06:01.578Z,16.97
2018-07-08T06:08:30.658Z,17.00
2018-07-08T06:10:59.563Z,17.04
2018-07-08T06:13:28.443Z,16.94
2018-07-08T06:15:57.371Z,16.88
2018-07-08T06:18:26.058Z,17.10
2018-07-08T06:20:54.775Z,17.06
2018-07-08T06:23:23.807Z,16.98
2018-07-08T06:25:53.121Z,16.98
2018-07-08T06:28:21.895Z,17.17
2018-07-08T06:30:50.892Z,17.05
2018-07-08T06:33:19.562Z,17.07
2018-07-08T06:35:48.444Z,16.92
2018-07-08T06:38:17.363Z,17.32
2018-07-08T06:40:46.151Z,16.98
2018-07-08T06:43:14.922Z,17.18
2018-07-08T06:45:43.829Z,17.30
2018-07-08T06:48:12.906Z,17.19
2018-07-08T06:50:41.595Z,17.07
2018-07-08T06:53:10.436Z,17.19
2018-07-08T06:55:39.299Z,17.38
2018-07-08T06:58:08.267Z,17.36
2018-07-08T07:00:36.905Z,17.33
2018-07-08T07:03:06.048Z,17.27
2018-07-08T07:05:34.927Z,17.52
2018-07-08T07:08:03.506Z,17.38
2018-07-08T07:10:32.531Z,17.44
2018-07-08T07:13:01.411Z,17.64
2018-07-08T07:15:30.164Z,17.73
2018-07-08T07:17:58.791Z,17.92
2018-07-08T07:20:27.886Z,17.89
2018-07-08T07:22:56.620Z,18.04
2018-07-08T07:25:25.666Z,18.25
2018-07-08T07:27:54.371Z,17.92
2018-07-08T07:30:23.411Z,17.79
2018-07-08T07:32:51.991Z,18.17
2018-07-08T07:35:20.739Z,18.07
2018-07-08T07:37:49.528Z,18.23
2018-07-08T07:40:18.604Z,18.21
2018-07-08T07:42:47.327Z,17.82
2018-07-08T07:45:15.951Z,18.28
2018-07-08T07:47:44.851Z,18.23
2018-07-08T07:50:14.055Z,18.23
2018-07-08T07:52:42.851Z,18.17
2018-07-08T07:55:11.744Z,18.42
2018-07-08T07:57:40.588Z,18.42
2018-07-08T08:00:09.524Z,18.60
2018-07-08T08:02:38.379Z,18.82
2018-07-08T08:05:07.506Z,18.53
2018-07-08T08:07:36.232Z,18.73
2018-07-08T08:10:05.709Z,18.88
2018-07-08T08:12:34.574Z,18.91
2018-07-08T08:15:03.466Z,18.87
2018-07-08T08:17:32.260Z,18.65
2018-07-08T08:20:00.903Z,18.60
2018-07-08T08:22:29.758Z,18.73
2018-07-08T08:24:58.491Z,18.94
2018-07-08T08:27:27.407Z,19.07
2018-07-08T08:29:56.190Z,19.42
2018-07-08T08:32:25.507Z,19.77
2018-07-08T08:34:58.239Z,19.60
2018-07-08T08:37:34.548Z,19.16
2018-07-08T08:40:03.763Z,19.28
2018-07-08T08:42:32.451Z,19.48
2018-07-08T08:45:01.637Z,19.81
2018-07-08T08:47:31.159Z,19.99
2018-07-08T08:50:00.244Z,20.04
2018-07-08T08:52:29.187Z,19.61
2018-07-08T08:54:58.253Z,19.78
2018-07-08T08:57:27.215Z,19.75
2018-07-08T08:59:56.031Z,19.31
2018-07-08T09:02:24.649Z,19.39
2018-07-08T09:04:53.451Z,19.51
2018-07-08T09:07:22.808Z,19.95
2018-07-08T09:09:51.796Z,19.69
2018-07-08T09:12:20.648Z,20.18
2018-07-08T09:14:49.746Z,19.65
2018-07-08T09:17:18.911Z,20.43
2018-07-08T09:19:48.369Z,20.30
2018-07-08T09:22:17.827Z,20.61
2018-07-08T09:24:47.571Z,20.73
2018-07-08T09:27:16.379Z,20.12
2018-07-08T09:29:45.216Z,20.83
2018-07-08T09:32:13.931Z,20.50
2018-07-08T09:34:43.206Z,20.30
2018-07-08T09:37:12.383Z,21.02
2018-07-08T09:39:41.311Z,20.73
2018-07-08T09:42:10.215Z,21.09
2018-07-08T09:44:39.182Z,20.87
2018-07-08T09:47:07.875Z,20.80
2018-07-08T09:49:36.984Z,21.24
2018-07-08T09:52:06.582Z,21.27
2018-07-08T09:54:35.475Z,20.96
2018-07-08T09:57:04.276Z,21.00
2018-07-08T09:59:33.255Z,20.70
2018-07-08T10:02:02.333Z,21.32
2018-07-08T10:04:31.323Z,21.05
2018-07-08T10:07:00.351Z,21.27
2018-07-08T10:09:29.431Z,21.48
2018-07-08T10:11:58.541Z,21.66
2018-07-08T10:14:27.828Z,21.43
2018-07-08T10:16:57.006Z,21.68
2018-07-08T10:19:25.721Z,22.28
2018-07-08T10:21:54.396Z,22.04
2018-07-08T10:24:23.222Z,22.17
2018-07-08T10:27:02.112Z,21.71
2018-07-08T10:29:30.802Z,23.04
2018-07-08T10:31:59.707Z,23.08
2018-07-08T10:34:28.589Z,22.86
2018-07-08T10:36:57.484Z,23.62
2018-07-08T10:39:26.208Z,23.45
2018-07-08T10:41:55.069Z,23.12
2018-07-08T10:44:23.803Z,23.10
2018-07-08T10:46:52.639Z,22.56
2018-07-08T10:49:21.393Z,22.31
2018-07-08T10:51:50.417Z,22.75
2018-07-08T10:54:19.296Z,23.29
2018-07-08T10:56:47.895Z,22.68
2018-07-08T10:59:16.545Z,22.80
2018-07-08T11:01:45.264Z,22.56
2018-07-08T11:04:17.074Z,22.49
2018-07-08T11:06:46.175Z,22.34
2018-07-08T11:09:15.088Z,24.18
2018-07-08T11:11:44.212Z,24.65
2018-07-08T11:14:13.087Z,24.42
2018-07-08T11:16:42.178Z,23.80
2018-07-08T11:19:11.273Z,23.83
2018-07-08T11:21:40.068Z,23.99
2018-07-08T11:24:09.071Z,24.19
2018-07-08T11:26:38.003Z,25.10
2018-07-08T11:29:07.040Z,26.03
2018-07-08T11:31:35.927Z,25.24
2018-07-08T11:34:04.616Z,24.94
2018-07-08T11:36:33.700Z,24.72
2018-07-08T11:39:02.599Z,24.49
2018-07-08T11:41:31.507Z,24.53
2018-07-08T11:44:00.627Z,24.64
2018-07-08T11:46:29.479Z,24.83
2018-07-08T11:48:58.369Z,23.88
2018-07-08T11:51:27.283Z,23.95
2018-07-08T11:53:56.152Z,23.92
2018-07-08T11:56:25.082Z,23.86
2018-07-08T11:58:53.936Z,24.05
2018-07-08T12:01:22.788Z,24.02
2018-07-08T12:03:51.686Z,24.36
2018-07-08T12:06:20.557Z,24.77
2018-07-08T12:08:49.208Z,24.58
2018-07-08T12:11:17.987Z,24.55
2018-07-08T12:13:46.570Z,25.38
2018-07-08T12:16:15.436Z,25.41
2018-07-08T12:18:44.534Z,25.43
2018-07-08T12:21:13.389Z,25.27
2018-07-08T12:23:43.044Z,24.86
2018-07-08T12:26:12.200Z,24.56
2018-07-08T12:28:41.245Z,24.55
2018-07-08T12:31:09.918Z,24.82
2018-07-08T12:33:41.259Z,24.72
2018-07-08T12:36:10.580Z,24.86
2018-07-08T12:38:39.727Z,24.86
2018-07-08T12:41:08.755Z,24.59
2018-07-08T12:43:37.876Z,24.14
2018-07-08T12:46:06.961Z,25.06
2018-07-08T12:48:35.689Z,25.02
2018-07-08T12:51:04.735Z,24.65
2018-07-08T12:53:33.600Z,25.35
2018-07-08T12:56:02.536Z,25.09
2018-07-08T12:58:31.707Z,25.55
2018-07-08T13:01:00.584Z,26.30
2018-07-08T13:03:29.412Z,26.56
2018-07-08T13:05:58.355Z,27.96
2018-07-08T13:08:27.488Z,27.63
2018-07-08T13:10:56.597Z,28.01
2018-07-08T13:13:25.477Z,26.78
2018-07-08T13:15:54.183Z,26.60
2018-07-08T13:18:23.039Z,26.94
2018-07-08T13:20:51.850Z,26.08
2018-07-08T13:23:20.507Z,25.98
2018-07-08T13:25:49.258Z,25.79
2018-07-08T13:28:18.263Z,27.34
2018-07-08T13:30:47.097Z,26.69
2018-07-08T13:33:15.826Z,28.21
2018-07-08T13:35:44.799Z,28.59
2018-07-08T13:38:13.891Z,29.63
2018-07-08T13:40:43.462Z,27.16
2018-07-08T13:43:12.676Z,28.77
2018-07-08T13:45:41.323Z,30.34
2018-07-08T13:48:10.925Z,31.04
2018-07-08T13:50:40.151Z,31.73
2018-07-08T13:53:09.113Z,31.66
2018-07-08T13:55:37.888Z,31.69
2018-07-08T13:58:06.563Z,32.29
2018-07-08T14:00:35.412Z,33.91
2018-07-08T14:03:04.336Z,32.74
2018-07-08T14:05:33.327Z,34.02
2018-07-08T14:08:02.858Z,33.26
2018-07-08T14:10:31.686Z,33.00
2018-07-08T14:13:00.408Z,34.39
2018-07-08T14:15:29.184Z,34.30
2018-07-08T14:17:57.815Z,34.15
2018-07-08T14:20:26.596Z,34.06
2018-07-08T14:22:55.366Z,34.80
2018-07-08T14:25:24.116Z,34.18
2018-07-08T14:27:53.328Z,34.45
2018-07-08T14:30:21.955Z,34.10
2018-07-08T14:32:51.092Z,33.60
2018-07-08T14:35:19.784Z,32.68
2018-07-08T14:37:48.507Z,31.05
2018-07-08T14:40:17.766Z,32.60
2018-07-08T14:42:47.047Z,30.10
2018-07-08T14:45:16.219Z,31.03
2018-07-08T14:47:45.075Z,30.16
2018-07-08T14:50:13.799Z,29.89
2018-07-08T14:52:42.657Z,29.88
2018-07-08T14:55:11.407Z,29.52
2018-07-08T14:57:40.410Z,29.53
2018-07-08T15:00:09.452Z,29.29
2018-07-08T15:02:38.202Z,28.25
2018-07-08T15:05:06.989Z,28.62
2018-07-08T15:07:35.987Z,28.78
2018-07-08T15:10:05.064Z,29.00
2018-07-08T15:12:33.751Z,28.77
2018-07-08T15:15:02.639Z,28.75
2018-07-08T15:17:31.621Z,28.99
2018-07-08T15:20:00.438Z,29.04
2018-07-08T15:22:29.328Z,28.83
2018-07-08T15:24:58.306Z,28.36
2018-07-08T15:27:27.523Z,28.14
2018-07-08T15:29:56.996Z,28.13
2018-07-08T15:32:26.119Z,28.34
2018-07-08T15:34:55.187Z,29.72
2018-07-08T15:37:24.294Z,28.70
2018-07-08T15:39:53.369Z,28.39
2018-07-08T15:42:22.487Z,29.26
2018-07-08T15:44:51.350Z,32.06
2018-07-08T15:47:20.574Z,32.36
2018-07-08T15:49:49.378Z,32.68
2018-07-08T15:52:18.195Z,30.16
2018-07-08T15:54:47.131Z,30.70
2018-07-08T15:57:15.902Z,29.71
2018-07-08T15:59:44.782Z,29.30
2018-07-08T16:02:13.816Z,28.84
2018-07-08T16:04:42.706Z,29.16
2018-07-08T16:07:11.627Z,29.13
2018-07-08T16:09:40.487Z,29.40
2018-07-08T16:12:09.279Z,30.59
2018-07-08T16:14:37.973Z,31.34
2018-07-08T16:17:06.971Z,30.23
2018-07-08T16:19:35.742Z,29.60
2018-07-08T16:22:04.584Z,28.73
2018-07-08T16:24:33.646Z,28.98
2018-07-08T16:27:02.743Z,28.47
2018-07-08T16:29:35.883Z,27.88
2018-07-08T16:32:04.878Z,28.56
2018-07-08T16:34:33.715Z,29.51
2018-07-08T16:37:02.805Z,31.93
2018-07-08T16:39:31.682Z,30.47
2018-07-08T16:42:00.459Z,29.26
2018-07-08T16:44:29.055Z,28.54
2018-07-08T16:46:58.032Z,27.51
2018-07-08T16:49:27.774Z,27.11
2018-07-08T16:51:56.447Z,27.08
2018-07-08T16:54:25.536Z,26.53
2018-07-08T16:56:54.907Z,26.75
2018-07-08T16:59:23.739Z,26.81
2018-07-08T17:01:52.743Z,26.61
2018-07-08T17:04:21.599Z,26.65
2018-07-08T17:06:50.712Z,26.59
2018-07-08T17:09:19.405Z,26.61
2018-07-08T17:11:48.299Z,26.36
2018-07-08T17:14:16.985Z,26.26
2018-07-08T17:16:45.956Z,26.13
2018-07-08T17:19:14.607Z,25.91
2018-07-08T17:21:43.747Z,25.81
2018-07-08T17:24:18.229Z,25.80
2018-07-08T17:26:48.507Z,25.69
2018-07-08T17:29:17.608Z,25.77
2018-07-08T17:31:46.362Z,25.57
2018-07-08T17:34:15.151Z,25.64
2018-07-08T17:36:44.258Z,25.66
2018-07-08T17:39:13.936Z,25.86
2018-07-08T17:41:42.872Z,25.69
2018-07-08T17:44:12.173Z,25.60
2018-07-08T17:46:42.025Z,25.42
2018-07-08T17:49:10.959Z,25.40
2018-07-08T17:51:40.052Z,25.31
2018-07-08T17:54:08.843Z,25.40
2018-07-08T17:56:38.411Z,25.39
2018-07-08T17:59:08.019Z,25.33
2018-07-08T18:01:37.183Z,25.25
2018-07-08T18:04:06.101Z,25.14
2018-07-08T18:06:35.157Z,25.14
2018-07-08T18:09:05.096Z,25.07
2018-07-08T18:11:34.183Z,25.07
2018-07-08T18:14:03.895Z,25.08
2018-07-08T18:16:33.231Z,25.02
2018-07-08T18:19:02.647Z,24.94
2018-07-08T18:21:32.378Z,24.89
2018-07-08T18:24:01.476Z,24.92
2018-07-08T18:26:31.366Z,24.76
2018-07-08T18:29:01.066Z,24.78
2018-07-08T18:31:29.964Z,24.70
2018-07-08T18:34:00.041Z,24.64
2018-07-08T18:36:29.307Z,24.67
2018-07-08T18:38:58.400Z,24.58
2018-07-08T18:41:27.617Z,24.52
2018-07-08T18:43:56.955Z,24.48
2018-07-08T18:46:26.093Z,24.39
2018-07-08T18:48:54.986Z,24.30
2018-07-08T18:51:24.152Z,24.22
2018-07-08T18:53:52.970Z,24.14
2018-07-08T18:56:22.347Z,24.04
2018-07-08T18:58:51.155Z,24.02
2018-07-08T19:01:20.070Z,23.94
2018-07-08T19:03:48.923Z,23.98
2018-07-08T19:06:17.647Z,23.91
2018-07-08T19:08:46.503Z,23.77
2018-07-08T19:11:15.448Z,23.68
2018-07-08T19:13:44.512Z,23.69
2018-07-08T19:16:13.212Z,23.60
2018-07-08T19:18:41.971Z,23.53
2018-07-08T19:21:10.979Z,23.48
2018-07-08T19:23:40.221Z,23.44
2018-07-08T19:26:09.168Z,23.43
2018-07-08T19:28:38.069Z,23.37
2018-07-08T19:31:06.975Z,23.27
2018-07-08T19:33:36.216Z,23.24
2018-07-08T19:36:05.564Z,23.29
2018-07-08T19:38:34.243Z,23.19
2018-07-08T19:41:03.162Z,23.09
2018-07-08T19:43:32.072Z,23.05
2018-07-08T19:46:01.312Z,23.03
2018-07-08T19:48:30.618Z,22.92
2018-07-08T19:50:59.540Z,22.88
2018-07-08T19:53:28.662Z,23.01
2018-07-08T19:55:57.740Z,22.91
2018-07-08T19:58:26.601Z,22.81
2018-07-08T20:00:55.502Z,22.74
2018-07-08T20:03:24.388Z,22.70
2018-07-08T20:05:53.260Z,22.58
2018-07-08T20:08:22.151Z,22.55
2018-07-08T20:10:51.075Z,22.45
2018-07-08T20:13:20.000Z,22.36
2018-07-08T20:15:49.243Z,22.35
2018-07-08T20:18:18.522Z,22.29
2018-07-08T20:20:47.631Z,22.22
2018-07-08T20:23:16.724Z,22.18
2018-07-08T20:25:46.056Z,22.14
2018-07-08T20:28:14.806Z,22.02
2018-07-08T20:30:43.484Z,21.97
2018-07-08T20:33:12.290Z,21.90
2018-07-08T20:35:41.257Z,21.81
2018-07-08T20:38:09.947Z,21.72
2018-07-08T20:40:38.755Z,21.65
2018-07-08T20:43:07.642Z,21.55
2018-07-08T20:45:36.356Z,21.45
2018-07-08T20:48:05.176Z,21.38
2018-07-08T20:50:34.127Z,21.26
2018-07-08T20:53:03.018Z,21.16
2018-07-08T20:55:31.951Z,21.10
2018-07-08T20:58:00.594Z,20.93
2018-07-08T21:00:29.366Z,20.92
2018-07-08T21:02:58.155Z,20.89
2018-07-08T21:05:27.119Z,20.83
2018-07-08T21:07:55.919Z,20.77
2018-07-08T21:10:24.719Z,20.82
2018-07-08T21:12:53.738Z,20.80
2018-07-08T21:15:22.642Z,20.80
2018-07-08T21:17:51.672Z,20.87
2018-07-08T21:20:20.524Z,20.86
2018-07-08T21:22:49.415Z,20.92
2018-07-08T21:25:18.203Z,20.95
2018-07-08T21:27:47.666Z,20.92
2018-07-08T21:30:16.806Z,20.96
2018-07-08T21:32:45.680Z,20.94
2018-07-08T21:35:14.591Z,20.91
2018-07-08T21:37:43.444Z,20.87
2018-07-08T21:40:12.227Z,20.82
2018-07-08T21:42:41.230Z,20.77
2018-07-08T21:45:10.083Z,20.64
2018-07-08T21:47:39.120Z,20.57
2018-07-08T21:50:08.513Z,20.51
2018-07-08T21:52:37.331Z,20.46
2018-07-08T21:55:06.718Z,20.42
2018-07-08T21:57:35.812Z,20.36
2018-07-08T22:00:05.231Z,20.27
2018-07-08T22:02:34.113Z,20.24
2018-07-08T22:05:03.205Z,20.21
2018-07-08T22:07:37.352Z,20.16
2018-07-08T22:10:06.596Z,20.10
2018-07-08T22:12:35.722Z,20.09
2018-07-08T22:15:04.795Z,20.06
2018-07-08T22:17:34.294Z,19.89
2018-07-08T22:20:03.205Z,19.85
2018-07-08T22:22:31.886Z,19.73
2018-07-08T22:25:00.572Z,19.65
2018-07-08T22:27:29.499Z,19.57
2018-07-08T22:29:58.743Z,19.46
2018-07-08T22:32:27.338Z,19.38
2018-07-08T22:34:56.240Z,19.33
2018-07-08T22:37:25.061Z,19.31
2018-07-08T22:39:54.015Z,19.31
2018-07-08T22:42:22.767Z,19.30
2018-07-08T22:44:51.683Z,19.33
2018-07-08T22:47:21.659Z,19.34
2018-07-08T22:49:50.496Z,19.39
2018-07-08T22:52:19.620Z,19.35
2018-07-08T22:54:48.467Z,19.33
2018-07-08T22:57:17.634Z,19.34
2018-07-08T22:59:57.696Z,19.35
2018-07-08T23:02:37.695Z,19.37
2018-07-08T23:05:06.713Z,19.34
2018-07-08T23:07:35.531Z,19.34
2018-07-08T23:10:04.550Z,19.30
2018-07-08T23:12:33.427Z,19.31
2018-07-08T23:15:02.542Z,19.32
2018-07-08T23:17:31.853Z,19.28
2018-07-08T23:20:01.082Z,19.34
2018-07-08T23:22:40.975Z,19.36
2018-07-08T23:25:10.764Z,19.32
2018-07-08T23:27:39.366Z,19.29
2018-07-08T23:30:08.166Z,19.32
2018-07-08T23:32:37.264Z,19.40
2018-07-08T23:35:06.594Z,19.40
2018-07-08T23:37:36.085Z,19.37
2018-07-08T23:40:05.194Z,19.39
2018-07-08T23:42:34.191Z,19.37
2018-07-08T23:45:03.384Z,19.43
2018-07-08T23:47:32.282Z,19.39
2018-07-08T23:50:01.154Z,19.38
2018-07-08T23:52:30.251Z,19.37
2018-07-08T23:54:59.180Z,19.30
2018-07-08T23:57:28.318Z,19.33
2018-07-08T23:59:57.110Z,19.25
